sensor_id;sensor_type;location;lat;lon;timestamp;P1;durP1;ratioP1;P2;durP2;ratioP2
39880;SDS011;25554;44.954;10.068;2022-09-27T00:00:34;3.80;;;3.50;;
39880;SDS011;25554;44.954;10.068;2022-09-27T00:03:02;3.53;;;3.20;;
39880;SDS011;25554;44.954;10.068;2022-09-27T00:05:28;3.10;;;2.80;;
39880;SDS011;25554;44.954;10.068;2022-09-27T00:10:22;2.70;;;2.50;;
39880;SDS011;25554;44.954;10.068;2022-09-27T00:12:48;3.13;;;2.83;;
39880;SDS011;25554;44.954;10.068;2022-09-27T00:15:16;2.28;;;2.08;;
39880;SDS011;25554;44.954;10.068;2022-09-27T00:17:42;3.33;;;2.40;;
39880;SDS011;25554;44.954;10.068;2022-09-27T00:22:35;2.20;;;2.00;;
39880;SDS011;25554;44.954;10.068;2022-09-27T00:25:02;4.93;;;2.30;;
39880;SDS011;25554;44.954;10.068;2022-09-27T00:27:31;4.60;;;2.03;;
39880;SDS011;25554;44.954;10.068;2022-09-27T00:29:58;2.13;;;2.00;;
39880;SDS011;25554;44.954;10.068;2022-09-27T00:32:24;2.60;;;2.00;;
39880;SDS011;25554;44.954;10.068;2022-09-27T00:34:50;3.92;;;2.20;;
39880;SDS011;25554;44.954;10.068;2022-09-27T00:37:17;2.30;;;2.15;;
39880;SDS011;25554;44.954;10.068;2022-09-27T00:39:43;2.35;;;2.15;;
39880;SDS011;25554;44.954;10.068;2022-09-27T00:42:10;3.67;;;2.78;;
39880;SDS011;25554;44.954;10.068;2022-09-27T00:52:14;4.57;;;3.80;;
39880;SDS011;25554;44.954;10.068;2022-09-27T00:54:47;4.72;;;4.25;;
39880;SDS011;25554;44.954;10.068;2022-09-27T00:57:18;7.90;;;6.22;;
39880;SDS011;25554;44.954;10.068;2022-09-27T00:59:48;7.93;;;7.15;;
39880;SDS011;25554;44.954;10.068;2022-09-27T01:02:22;9.35;;;7.93;;
39880;SDS011;25554;44.954;10.068;2022-09-27T01:04:48;8.40;;;7.53;;
39880;SDS011;25554;44.954;10.068;2022-09-27T01:07:25;12.77;;;9.77;;
39880;SDS011;25554;44.954;10.068;2022-09-27T01:09:54;14.55;;;11.77;;
39880;SDS011;25554;44.954;10.068;2022-09-27T01:12:34;15.90;;;13.25;;
39880;SDS011;25554;44.954;10.068;2022-09-27T01:27:00;19.92;;;14.88;;
39880;SDS011;25554;44.954;10.068;2022-09-27T01:38:16;19.33;;;15.00;;
39880;SDS011;25554;44.954;10.068;2022-09-27T01:41:03;15.68;;;13.88;;
39880;SDS011;25554;44.954;10.068;2022-09-27T01:44:34;16.13;;;13.15;;
39880;SDS011;25554;44.954;10.068;2022-09-27T01:47:13;19.38;;;15.35;;
39880;SDS011;25554;44.954;10.068;2022-09-27T01:53:20;17.48;;;13.77;;
39880;SDS011;25554;44.954;10.068;2022-09-27T01:55:51;15.98;;;14.15;;
39880;SDS011;25554;44.954;10.068;2022-09-27T01:58:40;17.20;;;13.60;;
39880;SDS011;25554;44.954;10.068;2022-09-27T02:01:17;17.05;;;14.35;;
39880;SDS011;25554;44.954;10.068;2022-09-27T02:03:49;17.90;;;15.07;;
39880;SDS011;25554;44.954;10.068;2022-09-27T02:06:37;19.98;;;15.98;;
39880;SDS011;25554;44.954;10.068;2022-09-27T02:09:30;19.13;;;16.50;;
39880;SDS011;25554;44.954;10.068;2022-09-27T02:12:19;19.40;;;15.30;;
39880;SDS011;25554;44.954;10.068;2022-09-27T02:14:55;17.92;;;15.43;;
39880;SDS011;25554;44.954;10.068;2022-09-27T02:20:12;20.05;;;14.85;;
39880;SDS011;25554;44.954;10.068;2022-09-27T02:24:05;18.42;;;14.45;;
39880;SDS011;25554;44.954;10.068;2022-09-27T02:26:16;19.92;;;15.98;;
39880;SDS011;25554;44.954;10.068;2022-09-27T02:28:49;22.05;;;15.48;;
39880;SDS011;25554;44.954;10.068;2022-09-27T02:31:40;21.23;;;16.92;;
39880;SDS011;25554;44.954;10.068;2022-09-27T02:36:42;20.88;;;16.35;;
39880;SDS011;25554;44.954;10.068;2022-09-27T02:39:11;21.75;;;17.77;;
39880;SDS011;25554;44.954;10.068;2022-09-27T02:41:38;21.48;;;18.08;;
39880;SDS011;25554;44.954;10.068;2022-09-27T02:44:06;22.83;;;18.67;;
39880;SDS011;25554;44.954;10.068;2022-09-27T03:01:37;28.33;;;21.75;;
39880;SDS011;25554;44.954;10.068;2022-09-27T03:04:33;27.08;;;20.63;;
39880;SDS011;25554;44.954;10.068;2022-09-27T03:07:11;28.10;;;21.48;;
39880;SDS011;25554;44.954;10.068;2022-09-27T03:09:42;28.65;;;20.83;;
39880;SDS011;25554;44.954;10.068;2022-09-27T03:12:13;25.80;;;20.77;;
39880;SDS011;25554;44.954;10.068;2022-09-27T03:14:45;24.63;;;20.58;;
39880;SDS011;25554;44.954;10.068;2022-09-27T03:17:46;28.23;;;22.30;;
39880;SDS011;25554;44.954;10.068;2022-09-27T03:20:19;26.05;;;20.40;;
39880;SDS011;25554;44.954;10.068;2022-09-27T03:22:51;24.27;;;19.65;;
39880;SDS011;25554;44.954;10.068;2022-09-27T03:25:21;25.00;;;20.27;;
39880;SDS011;25554;44.954;10.068;2022-09-27T03:27:49;31.48;;;23.55;;
39880;SDS011;25554;44.954;10.068;2022-09-27T03:30:16;27.35;;;22.48;;
39880;SDS011;25554;44.954;10.068;2022-09-27T03:32:43;26.88;;;22.63;;
39880;SDS011;25554;44.954;10.068;2022-09-27T03:35:36;30.23;;;21.00;;
39880;SDS011;25554;44.954;10.068;2022-09-27T03:38:03;32.22;;;22.05;;
39880;SDS011;25554;44.954;10.068;2022-09-27T03:40:30;30.83;;;22.02;;
39880;SDS011;25554;44.954;10.068;2022-09-27T03:45:22;27.85;;;21.05;;
39880;SDS011;25554;44.954;10.068;2022-09-27T03:47:49;28.65;;;22.83;;
39880;SDS011;25554;44.954;10.068;2022-09-27T03:50:16;32.95;;;22.27;;
39880;SDS011;25554;44.954;10.068;2022-09-27T03:52:42;33.22;;;23.65;;
39880;SDS011;25554;44.954;10.068;2022-09-27T03:55:10;29.50;;;23.08;;
39880;SDS011;25554;44.954;10.068;2022-09-27T03:57:37;32.55;;;23.98;;
39880;SDS011;25554;44.954;10.068;2022-09-27T04:00:04;31.88;;;24.38;;
39880;SDS011;25554;44.954;10.068;2022-09-27T04:02:38;31.83;;;24.50;;
39880;SDS011;25554;44.954;10.068;2022-09-27T04:05:26;30.92;;;23.95;;
39880;SDS011;25554;44.954;10.068;2022-09-27T04:08:00;29.45;;;22.92;;
39880;SDS011;25554;44.954;10.068;2022-09-27T04:10:29;29.50;;;22.55;;
39880;SDS011;25554;44.954;10.068;2022-09-27T04:12:56;27.60;;;21.77;;
39880;SDS011;25554;44.954;10.068;2022-09-27T04:15:25;26.40;;;21.05;;
39880;SDS011;25554;44.954;10.068;2022-09-27T04:18:29;31.25;;;23.20;;
39880;SDS011;25554;44.954;10.068;2022-09-27T04:21:14;26.77;;;21.52;;
39880;SDS011;25554;44.954;10.068;2022-09-27T04:23:47;29.48;;;22.10;;
39880;SDS011;25554;44.954;10.068;2022-09-27T04:26:16;28.15;;;22.63;;
39880;SDS011;25554;44.954;10.068;2022-09-27T04:28:48;31.05;;;21.75;;
39880;SDS011;25554;44.954;10.068;2022-09-27T04:31:17;26.48;;;21.02;;
39880;SDS011;25554;44.954;10.068;2022-09-27T04:33:51;27.45;;;20.58;;
39880;SDS011;25554;44.954;10.068;2022-09-27T04:36:25;28.40;;;20.92;;
39880;SDS011;25554;44.954;10.068;2022-09-27T04:39:03;23.75;;;19.92;;
39880;SDS011;25554;44.954;10.068;2022-09-27T04:41:34;27.65;;;20.58;;
39880;SDS011;25554;44.954;10.068;2022-09-27T04:44:01;26.27;;;18.95;;
39880;SDS011;25554;44.954;10.068;2022-09-27T04:46:28;24.58;;;18.42;;
39880;SDS011;25554;44.954;10.068;2022-09-27T04:48:57;24.63;;;18.70;;
39880;SDS011;25554;44.954;10.068;2022-09-27T04:51:24;23.52;;;19.33;;
39880;SDS011;25554;44.954;10.068;2022-09-27T04:53:52;24.92;;;19.48;;
39880;SDS011;25554;44.954;10.068;2022-09-27T04:56:20;26.33;;;18.63;;
39880;SDS011;25554;44.954;10.068;2022-09-27T04:58:47;20.67;;;16.20;;
39880;SDS011;25554;44.954;10.068;2022-09-27T05:04:05;21.55;;;17.00;;
39880;SDS011;25554;44.954;10.068;2022-09-27T05:06:34;21.88;;;16.85;;
39880;SDS011;25554;44.954;10.068;2022-09-27T05:09:07;23.88;;;17.00;;
39880;SDS011;25554;44.954;10.068;2022-09-27T05:11:44;23.77;;;15.73;;
39880;SDS011;25554;44.954;10.068;2022-09-27T05:14:36;21.73;;;15.05;;
39880;SDS011;25554;44.954;10.068;2022-09-27T05:17:38;17.63;;;14.27;;
39880;SDS011;25554;44.954;10.068;2022-09-27T05:20:23;18.23;;;15.32;;
39880;SDS011;25554;44.954;10.068;2022-09-27T05:22:59;19.55;;;14.95;;
39880;SDS011;25554;44.954;10.068;2022-09-27T05:25:26;20.73;;;15.63;;
39880;SDS011;25554;44.954;10.068;2022-09-27T05:27:52;19.33;;;15.00;;
39880;SDS011;25554;44.954;10.068;2022-09-27T05:30:19;19.15;;;15.73;;
39880;SDS011;25554;44.954;10.068;2022-09-27T05:32:52;22.80;;;17.63;;
39880;SDS011;25554;44.954;10.068;2022-09-27T05:35:24;22.50;;;17.02;;
39880;SDS011;25554;44.954;10.068;2022-09-27T05:37:52;27.42;;;17.55;;
39880;SDS011;25554;44.954;10.068;2022-09-27T05:40:21;25.95;;;17.35;;
39880;SDS011;25554;44.954;10.068;2022-09-27T05:42:52;23.65;;;18.88;;
39880;SDS011;25554;44.954;10.068;2022-09-27T05:45:20;21.67;;;17.42;;
39880;SDS011;25554;44.954;10.068;2022-09-27T05:47:51;22.80;;;18.48;;
39880;SDS011;25554;44.954;10.068;2022-09-27T05:50:22;25.98;;;19.88;;
39880;SDS011;25554;44.954;10.068;2022-09-27T05:52:49;31.63;;;20.30;;
39880;SDS011;25554;44.954;10.068;2022-09-27T05:55:18;27.13;;;19.63;;
39880;SDS011;25554;44.954;10.068;2022-09-27T05:58:02;26.45;;;21.08;;
39880;SDS011;25554;44.954;10.068;2022-09-27T06:00:47;24.80;;;20.25;;
39880;SDS011;25554;44.954;10.068;2022-09-27T06:03:46;25.52;;;20.80;;
39880;SDS011;25554;44.954;10.068;2022-09-27T06:09:14;30.52;;;21.83;;
39880;SDS011;25554;44.954;10.068;2022-09-27T06:11:42;28.65;;;21.77;;
39880;SDS011;25554;44.954;10.068;2022-09-27T06:14:11;27.52;;;21.92;;
39880;SDS011;25554;44.954;10.068;2022-09-27T06:16:50;25.20;;;20.25;;
39880;SDS011;25554;44.954;10.068;2022-09-27T06:19:19;25.80;;;20.45;;
39880;SDS011;25554;44.954;10.068;2022-09-27T06:21:48;22.55;;;18.52;;
39880;SDS011;25554;44.954;10.068;2022-09-27T06:24:15;21.20;;;18.02;;
39880;SDS011;25554;44.954;10.068;2022-09-27T06:26:43;30.48;;;19.88;;
39880;SDS011;25554;44.954;10.068;2022-09-27T06:29:10;24.20;;;19.83;;
39880;SDS011;25554;44.954;10.068;2022-09-27T06:31:41;29.17;;;22.98;;
39880;SDS011;25554;44.954;10.068;2022-09-27T06:34:18;30.83;;;23.85;;
39880;SDS011;25554;44.954;10.068;2022-09-27T06:36:48;33.28;;;25.60;;
39880;SDS011;25554;44.954;10.068;2022-09-27T06:39:15;31.63;;;26.98;;
39880;SDS011;25554;44.954;10.068;2022-09-27T06:42:03;31.17;;;25.35;;
39880;SDS011;25554;44.954;10.068;2022-09-27T06:44:49;33.58;;;26.42;;
39880;SDS011;25554;44.954;10.068;2022-09-27T06:47:33;33.65;;;25.92;;
39880;SDS011;25554;44.954;10.068;2022-09-27T06:50:23;34.83;;;25.25;;
39880;SDS011;25554;44.954;10.068;2022-09-27T06:52:49;33.97;;;24.52;;
39880;SDS011;25554;44.954;10.068;2022-09-27T06:55:17;30.38;;;24.05;;
39880;SDS011;25554;44.954;10.068;2022-09-27T06:57:43;34.40;;;23.38;;
39880;SDS011;25554;44.954;10.068;2022-09-27T07:00:28;28.85;;;24.90;;
39880;SDS011;25554;44.954;10.068;2022-09-27T07:03:21;32.08;;;23.90;;
39880;SDS011;25554;44.954;10.068;2022-09-27T07:06:19;31.25;;;23.35;;
39880;SDS011;25554;44.954;10.068;2022-09-27T07:08:53;30.25;;;24.27;;
39880;SDS011;25554;44.954;10.068;2022-09-27T07:11:21;27.35;;;22.70;;
39880;SDS011;25554;44.954;10.068;2022-09-27T07:13:53;30.05;;;24.30;;
39880;SDS011;25554;44.954;10.068;2022-09-27T07:16:21;28.40;;;23.02;;
39880;SDS011;25554;44.954;10.068;2022-09-27T07:18:48;30.67;;;23.67;;
39880;SDS011;25554;44.954;10.068;2022-09-27T07:21:14;30.58;;;23.33;;
39880;SDS011;25554;44.954;10.068;2022-09-27T07:28:35;29.23;;;23.73;;
39880;SDS011;25554;44.954;10.068;2022-09-27T07:31:02;28.92;;;22.20;;
39880;SDS011;25554;44.954;10.068;2022-09-27T07:33:30;30.40;;;23.05;;
39880;SDS011;25554;44.954;10.068;2022-09-27T07:35:57;29.63;;;21.23;;
39880;SDS011;25554;44.954;10.068;2022-09-27T07:38:24;32.33;;;24.40;;
39880;SDS011;25554;44.954;10.068;2022-09-27T07:40:50;24.73;;;21.63;;
39880;SDS011;25554;44.954;10.068;2022-09-27T07:45:44;27.90;;;22.30;;
39880;SDS011;25554;44.954;10.068;2022-09-27T07:48:40;31.13;;;22.80;;
39880;SDS011;25554;44.954;10.068;2022-09-27T07:51:15;26.88;;;22.77;;
39880;SDS011;25554;44.954;10.068;2022-09-27T07:53:47;24.23;;;21.08;;
39880;SDS011;25554;44.954;10.068;2022-09-27T07:59:14;28.15;;;22.00;;
39880;SDS011;25554;44.954;10.068;2022-09-27T08:01:40;34.60;;;26.55;;
39880;SDS011;25554;44.954;10.068;2022-09-27T08:04:06;25.70;;;21.67;;
39880;SDS011;25554;44.954;10.068;2022-09-27T08:06:33;34.58;;;27.65;;
39880;SDS011;25554;44.954;10.068;2022-09-27T08:09:00;23.92;;;21.33;;
39880;SDS011;25554;44.954;10.068;2022-09-27T08:11:29;24.08;;;20.67;;
39880;SDS011;25554;44.954;10.068;2022-09-27T08:13:55;26.40;;;21.15;;
39880;SDS011;25554;44.954;10.068;2022-09-27T08:16:27;23.27;;;20.45;;
39880;SDS011;25554;44.954;10.068;2022-09-27T08:19:19;26.08;;;21.90;;
39880;SDS011;25554;44.954;10.068;2022-09-27T08:22:04;23.02;;;20.55;;
39880;SDS011;25554;44.954;10.068;2022-09-27T08:24:39;21.75;;;18.38;;
39880;SDS011;25554;44.954;10.068;2022-09-27T08:27:25;25.52;;;21.08;;
39880;SDS011;25554;44.954;10.068;2022-09-27T08:29:55;22.83;;;19.98;;
39880;SDS011;25554;44.954;10.068;2022-09-27T08:32:21;24.38;;;19.60;;
39880;SDS011;25554;44.954;10.068;2022-09-27T08:34:48;24.50;;;19.00;;
39880;SDS011;25554;44.954;10.068;2022-09-27T08:37:14;24.77;;;19.35;;
39880;SDS011;25554;44.954;10.068;2022-09-27T08:47:24;24.33;;;20.50;;
39880;SDS011;25554;44.954;10.068;2022-09-27T08:49:59;23.60;;;21.10;;
39880;SDS011;25554;44.954;10.068;2022-09-27T08:52:51;23.80;;;20.63;;
39880;SDS011;25554;44.954;10.068;2022-09-27T08:58:14;25.67;;;19.38;;
39880;SDS011;25554;44.954;10.068;2022-09-27T09:01:03;23.67;;;19.83;;
39880;SDS011;25554;44.954;10.068;2022-09-27T09:03:46;27.17;;;20.35;;
39880;SDS011;25554;44.954;10.068;2022-09-27T09:08:51;22.25;;;19.95;;
39880;SDS011;25554;44.954;10.068;2022-09-27T09:14:51;22.38;;;19.05;;
39880;SDS011;25554;44.954;10.068;2022-09-27T09:26:01;26.75;;;18.95;;
39880;SDS011;25554;44.954;10.068;2022-09-27T09:31:23;21.50;;;17.83;;
39880;SDS011;25554;44.954;10.068;2022-09-27T09:34:02;20.35;;;17.45;;
39880;SDS011;25554;44.954;10.068;2022-09-27T09:39:11;24.08;;;18.38;;
39880;SDS011;25554;44.954;10.068;2022-09-27T09:47:17;22.30;;;17.17;;
39880;SDS011;25554;44.954;10.068;2022-09-27T09:49:54;23.65;;;18.80;;
39880;SDS011;25554;44.954;10.068;2022-09-27T09:52:28;19.38;;;14.93;;
39880;SDS011;25554;44.954;10.068;2022-09-27T10:00:41;13.65;;;11.30;;
39880;SDS011;25554;44.954;10.068;2022-09-27T10:03:09;15.60;;;12.18;;
39880;SDS011;25554;44.954;10.068;2022-09-27T10:05:35;17.50;;;13.27;;
39880;SDS011;25554;44.954;10.068;2022-09-27T10:08:06;17.50;;;13.48;;
39880;SDS011;25554;44.954;10.068;2022-09-27T10:10:37;14.68;;;13.15;;
39880;SDS011;25554;44.954;10.068;2022-09-27T10:13:23;16.55;;;10.77;;
39880;SDS011;25554;44.954;10.068;2022-09-27T10:16:01;11.82;;;9.85;;
39880;SDS011;25554;44.954;10.068;2022-09-27T10:18:34;15.35;;;12.70;;
39880;SDS011;25554;44.954;10.068;2022-09-27T10:24:31;13.48;;;11.18;;
39880;SDS011;25554;44.954;10.068;2022-09-27T10:26:58;10.95;;;8.85;;
39880;SDS011;25554;44.954;10.068;2022-09-27T10:29:31;10.05;;;8.25;;
39880;SDS011;25554;44.954;10.068;2022-09-27T10:32:00;9.95;;;8.82;;
39880;SDS011;25554;44.954;10.068;2022-09-27T10:34:40;12.13;;;10.05;;
39880;SDS011;25554;44.954;10.068;2022-09-27T10:39:40;10.55;;;9.05;;
39880;SDS011;25554;44.954;10.068;2022-09-27T10:47:56;14.23;;;9.35;;
39880;SDS011;25554;44.954;10.068;2022-09-27T10:50:35;10.48;;;9.13;;
39880;SDS011;25554;44.954;10.068;2022-09-27T10:53:21;10.13;;;9.02;;
39880;SDS011;25554;44.954;10.068;2022-09-27T10:55:57;8.65;;;7.75;;
39880;SDS011;25554;44.954;10.068;2022-09-27T10:58:33;10.80;;;6.53;;
39880;SDS011;25554;44.954;10.068;2022-09-27T11:01:08;9.75;;;6.95;;
39880;SDS011;25554;44.954;10.068;2022-09-27T11:03:56;9.38;;;7.55;;
39880;SDS011;25554;44.954;10.068;2022-09-27T11:08:52;9.27;;;8.30;;
39880;SDS011;25554;44.954;10.068;2022-09-27T11:11:24;10.45;;;8.30;;
39880;SDS011;25554;44.954;10.068;2022-09-27T11:13:59;10.00;;;7.88;;
39880;SDS011;25554;44.954;10.068;2022-09-27T11:30:22;11.68;;;8.63;;
39880;SDS011;25554;44.954;10.068;2022-09-27T11:36:32;10.13;;;7.90;;
39880;SDS011;25554;44.954;10.068;2022-09-27T11:52:47;7.43;;;5.45;;
39880;SDS011;25554;44.954;10.068;2022-09-27T11:55:30;6.30;;;5.60;;
39880;SDS011;25554;44.954;10.068;2022-09-27T11:58:53;7.28;;;6.03;;
39880;SDS011;25554;44.954;10.068;2022-09-27T12:04:11;8.75;;;6.90;;
39880;SDS011;25554;44.954;10.068;2022-09-27T12:09:47;6.55;;;4.85;;
39880;SDS011;25554;44.954;10.068;2022-09-27T12:12:25;8.85;;;6.13;;
39880;SDS011;25554;44.954;10.068;2022-09-27T12:14:58;8.68;;;6.28;;
39880;SDS011;25554;44.954;10.068;2022-09-27T12:17:35;5.45;;;4.80;;
39880;SDS011;25554;44.954;10.068;2022-09-27T12:20:41;5.68;;;4.03;;
39880;SDS011;25554;44.954;10.068;2022-09-27T12:23:08;3.72;;;3.00;;
39880;SDS011;25554;44.954;10.068;2022-09-27T12:25:57;5.28;;;4.18;;
39880;SDS011;25554;44.954;10.068;2022-09-27T12:28:40;6.72;;;4.10;;
39880;SDS011;25554;44.954;10.068;2022-09-27T12:31:21;4.80;;;3.55;;
39880;SDS011;25554;44.954;10.068;2022-09-27T12:36:40;6.85;;;4.63;;
39880;SDS011;25554;44.954;10.068;2022-09-27T12:41:50;10.30;;;6.68;;
39880;SDS011;25554;44.954;10.068;2022-09-27T12:44:38;6.68;;;5.20;;
39880;SDS011;25554;44.954;10.068;2022-09-27T12:47:10;4.70;;;2.20;;
39880;SDS011;25554;44.954;10.068;2022-09-27T12:50:04;3.17;;;2.15;;
39880;SDS011;25554;44.954;10.068;2022-09-27T12:52:50;2.50;;;1.58;;
39880;SDS011;25554;44.954;10.068;2022-09-27T13:01:03;2.25;;;1.27;;
39880;SDS011;25554;44.954;10.068;2022-09-27T13:12:21;1.60;;;1.48;;
39880;SDS011;25554;44.954;10.068;2022-09-27T13:15:05;3.83;;;1.10;;
39880;SDS011;25554;44.954;10.068;2022-09-27T13:25:48;3.40;;;1.60;;
39880;SDS011;25554;44.954;10.068;2022-09-27T13:31:02;3.55;;;1.70;;
39880;SDS011;25554;44.954;10.068;2022-09-27T13:42:03;1.98;;;1.80;;
39880;SDS011;25554;44.954;10.068;2022-09-27T13:44:49;5.50;;;2.17;;
39880;SDS011;25554;44.954;10.068;2022-09-27T13:53:39;5.78;;;2.97;;
39880;SDS011;25554;44.954;10.068;2022-09-27T13:55:50;3.60;;;1.83;;
39880;SDS011;25554;44.954;10.068;2022-09-27T13:58:44;6.25;;;1.90;;
39880;SDS011;25554;44.954;10.068;2022-09-27T14:01:38;4.18;;;2.13;;
39880;SDS011;25554;44.954;10.068;2022-09-27T14:04:17;4.63;;;1.40;;
39880;SDS011;25554;44.954;10.068;2022-09-27T14:06:49;2.78;;;1.92;;
39880;SDS011;25554;44.954;10.068;2022-09-27T14:09:30;2.63;;;1.58;;
39880;SDS011;25554;44.954;10.068;2022-09-27T14:12:08;4.68;;;1.67;;
39880;SDS011;25554;44.954;10.068;2022-09-27T14:14:55;4.13;;;2.10;;
39880;SDS011;25554;44.954;10.068;2022-09-27T14:17:23;3.70;;;1.52;;
39880;SDS011;25554;44.954;10.068;2022-09-27T14:19:51;2.75;;;1.63;;
39880;SDS011;25554;44.954;10.068;2022-09-27T14:22:21;2.53;;;1.40;;
39880;SDS011;25554;44.954;10.068;2022-09-27T14:25:01;2.70;;;1.48;;
39880;SDS011;25554;44.954;10.068;2022-09-27T14:27:35;3.00;;;1.10;;
39880;SDS011;25554;44.954;10.068;2022-09-27T14:30:23;3.22;;;0.90;;
39880;SDS011;25554;44.954;10.068;2022-09-27T14:33:24;1.98;;;1.00;;
39880;SDS011;25554;44.954;10.068;2022-09-27T14:35:59;2.42;;;0.70;;
39880;SDS011;25554;44.954;10.068;2022-09-27T14:38:46;2.10;;;1.17;;
39880;SDS011;25554;44.954;10.068;2022-09-27T14:41:21;1.30;;;0.82;;
39880;SDS011;25554;44.954;10.068;2022-09-27T14:43:49;2.13;;;0.90;;
39880;SDS011;25554;44.954;10.068;2022-09-27T14:46:26;2.78;;;0.88;;
39880;SDS011;25554;44.954;10.068;2022-09-27T14:48:56;2.40;;;0.93;;
39880;SDS011;25554;44.954;10.068;2022-09-27T14:51:28;2.15;;;1.20;;
39880;SDS011;25554;44.954;10.068;2022-09-27T14:53:57;1.27;;;0.95;;
39880;SDS011;25554;44.954;10.068;2022-09-27T14:56:33;2.25;;;1.00;;
39880;SDS011;25554;44.954;10.068;2022-09-27T14:59:14;2.50;;;0.82;;
39880;SDS011;25554;44.954;10.068;2022-09-27T15:01:51;1.58;;;1.23;;
39880;SDS011;25554;44.954;10.068;2022-09-27T15:04:18;1.27;;;1.10;;
39880;SDS011;25554;44.954;10.068;2022-09-27T15:06:46;1.83;;;1.02;;
39880;SDS011;25554;44.954;10.068;2022-09-27T15:09:14;0.90;;;0.73;;
39880;SDS011;25554;44.954;10.068;2022-09-27T15:11:42;2.10;;;1.20;;
39880;SDS011;25554;44.954;10.068;2022-09-27T15:14:12;2.70;;;1.00;;
39880;SDS011;25554;44.954;10.068;2022-09-27T15:16:40;1.58;;;0.90;;
39880;SDS011;25554;44.954;10.068;2022-09-27T15:19:21;1.38;;;0.90;;
39880;SDS011;25554;44.954;10.068;2022-09-27T15:21:51;1.38;;;1.00;;
39880;SDS011;25554;44.954;10.068;2022-09-27T15:27:15;4.85;;;1.23;;
39880;SDS011;25554;44.954;10.068;2022-09-27T15:29:50;0.95;;;0.90;;
39880;SDS011;25554;44.954;10.068;2022-09-27T15:32:20;2.35;;;0.95;;
39880;SDS011;25554;44.954;10.068;2022-09-27T15:34:49;1.73;;;0.70;;
39880;SDS011;25554;44.954;10.068;2022-09-27T15:37:27;3.72;;;1.15;;
39880;SDS011;25554;44.954;10.068;2022-09-27T15:43:20;7.15;;;1.00;;
39880;SDS011;25554;44.954;10.068;2022-09-27T15:45:54;2.13;;;1.30;;
39880;SDS011;25554;44.954;10.068;2022-09-27T15:48:25;3.95;;;1.10;;
39880;SDS011;25554;44.954;10.068;2022-09-27T15:50:52;1.77;;;0.98;;
39880;SDS011;25554;44.954;10.068;2022-09-27T15:55:56;5.75;;;3.05;;
39880;SDS011;25554;44.954;10.068;2022-09-27T15:58:23;10.75;;;2.03;;
39880;SDS011;25554;44.954;10.068;2022-09-27T16:00:51;4.68;;;1.10;;
39880;SDS011;25554;44.954;10.068;2022-09-27T16:03:22;3.85;;;1.15;;
39880;SDS011;25554;44.954;10.068;2022-09-27T16:05:51;5.85;;;1.20;;
39880;SDS011;25554;44.954;10.068;2022-09-27T16:08:21;4.07;;;1.17;;
39880;SDS011;25554;44.954;10.068;2022-09-27T16:10:53;3.53;;;1.00;;
39880;SDS011;25554;44.954;10.068;2022-09-27T16:13:23;2.70;;;1.10;;
39880;SDS011;25554;44.954;10.068;2022-09-27T16:15:51;5.43;;;1.23;;
39880;SDS011;25554;44.954;10.068;2022-09-27T16:18:18;6.28;;;1.02;;
39880;SDS011;25554;44.954;10.068;2022-09-27T16:20:46;6.47;;;1.10;;
39880;SDS011;25554;44.954;10.068;2022-09-27T16:23:13;9.25;;;1.15;;
39880;SDS011;25554;44.954;10.068;2022-09-27T16:28:06;3.90;;;1.08;;
39880;SDS011;25554;44.954;10.068;2022-09-27T16:30:35;6.75;;;1.23;;
39880;SDS011;25554;44.954;10.068;2022-09-27T16:33:01;3.92;;;1.20;;
39880;SDS011;25554;44.954;10.068;2022-09-27T16:37:54;8.32;;;1.25;;
39880;SDS011;25554;44.954;10.068;2022-09-27T16:40:20;6.22;;;1.30;;
39880;SDS011;25554;44.954;10.068;2022-09-27T16:42:47;7.13;;;1.17;;
39880;SDS011;25554;44.954;10.068;2022-09-27T16:45:14;7.63;;;1.10;;
39880;SDS011;25554;44.954;10.068;2022-09-27T16:47:41;6.50;;;1.33;;
39880;SDS011;25554;44.954;10.068;2022-09-27T16:50:09;6.47;;;1.08;;
39880;SDS011;25554;44.954;10.068;2022-09-27T16:52:58;4.53;;;1.00;;
39880;SDS011;25554;44.954;10.068;2022-09-27T16:55:25;7.35;;;1.27;;
39880;SDS011;25554;44.954;10.068;2022-09-27T16:57:53;5.60;;;1.33;;
39880;SDS011;25554;44.954;10.068;2022-09-27T17:00:23;5.60;;;1.38;;
39880;SDS011;25554;44.954;10.068;2022-09-27T17:02:49;9.70;;;1.50;;
39880;SDS011;25554;44.954;10.068;2022-09-27T17:05:16;8.93;;;1.33;;
39880;SDS011;25554;44.954;10.068;2022-09-27T17:07:44;8.68;;;1.20;;
39880;SDS011;25554;44.954;10.068;2022-09-27T17:10:15;4.90;;;1.40;;
39880;SDS011;25554;44.954;10.068;2022-09-27T17:12:41;5.43;;;1.10;;
39880;SDS011;25554;44.954;10.068;2022-09-27T17:15:08;5.03;;;1.20;;
39880;SDS011;25554;44.954;10.068;2022-09-27T17:17:34;5.57;;;1.10;;
39880;SDS011;25554;44.954;10.068;2022-09-27T17:20:00;6.20;;;1.08;;
39880;SDS011;25554;44.954;10.068;2022-09-27T17:22:26;11.75;;;2.38;;
39880;SDS011;25554;44.954;10.068;2022-09-27T17:24:53;4.82;;;1.02;;
39880;SDS011;25554;44.954;10.068;2022-09-27T17:27:19;6.50;;;1.55;;
39880;SDS011;25554;44.954;10.068;2022-09-27T17:29:45;6.55;;;1.48;;
39880;SDS011;25554;44.954;10.068;2022-09-27T17:32:11;6.68;;;1.38;;
39880;SDS011;25554;44.954;10.068;2022-09-27T17:37:08;6.07;;;1.10;;
39880;SDS011;25554;44.954;10.068;2022-09-27T17:39:38;5.95;;;1.33;;
39880;SDS011;25554;44.954;10.068;2022-09-27T17:42:04;5.57;;;1.13;;
39880;SDS011;25554;44.954;10.068;2022-09-27T17:44:31;4.82;;;1.23;;
39880;SDS011;25554;44.954;10.068;2022-09-27T17:46:57;6.07;;;1.10;;
39880;SDS011;25554;44.954;10.068;2022-09-27T17:49:42;5.05;;;1.23;;
39880;SDS011;25554;44.954;10.068;2022-09-27T17:52:27;4.50;;;1.45;;
39880;SDS011;25554;44.954;10.068;2022-09-27T17:54:55;6.47;;;1.30;;
39880;SDS011;25554;44.954;10.068;2022-09-27T17:57:23;5.53;;;1.50;;
39880;SDS011;25554;44.954;10.068;2022-09-27T17:59:50;5.65;;;1.35;;
39880;SDS011;25554;44.954;10.068;2022-09-27T18:02:18;4.80;;;1.15;;
39880;SDS011;25554;44.954;10.068;2022-09-27T18:04:45;10.95;;;2.03;;
39880;SDS011;25554;44.954;10.068;2022-09-27T18:07:11;5.97;;;1.30;;
39880;SDS011;25554;44.954;10.068;2022-09-27T18:09:38;7.40;;;1.30;;
39880;SDS011;25554;44.954;10.068;2022-09-27T18:12:05;9.23;;;1.75;;
39880;SDS011;25554;44.954;10.068;2022-09-27T18:14:32;6.53;;;2.03;;
39880;SDS011;25554;44.954;10.068;2022-09-27T18:17:00;5.03;;;1.05;;
39880;SDS011;25554;44.954;10.068;2022-09-27T18:19:27;5.88;;;1.35;;
39880;SDS011;25554;44.954;10.068;2022-09-27T18:21:55;7.40;;;1.50;;
39880;SDS011;25554;44.954;10.068;2022-09-27T18:24:24;5.00;;;1.50;;
39880;SDS011;25554;44.954;10.068;2022-09-27T18:26:52;8.00;;;1.60;;
39880;SDS011;25554;44.954;10.068;2022-09-27T18:29:20;7.75;;;1.80;;
39880;SDS011;25554;44.954;10.068;2022-09-27T18:31:47;6.88;;;1.50;;
39880;SDS011;25554;44.954;10.068;2022-09-27T18:34:14;7.50;;;1.85;;
39880;SDS011;25554;44.954;10.068;2022-09-27T18:36:43;6.60;;;1.73;;
39880;SDS011;25554;44.954;10.068;2022-09-27T18:39:11;12.07;;;1.65;;
39880;SDS011;25554;44.954;10.068;2022-09-27T18:41:40;7.32;;;1.40;;
39880;SDS011;25554;44.954;10.068;2022-09-27T18:44:12;6.28;;;1.40;;
39880;SDS011;25554;44.954;10.068;2022-09-27T18:46:40;6.63;;;1.20;;